sensor_id;sensor_type;location;lat;lon;timestamp;temperature;humidity
15203;DHT22;7702;51.046;5.184;2023-07-31T00:01:31;16.80;99.90
15203;DHT22;7702;51.046;5.184;2023-07-31T00:03:56;16.80;99.90
15203;DHT22;7702;51.046;5.184;2023-07-31T00:06:22;16.70;99.90
15203;DHT22;7702;51.046;5.184;2023-07-31T00:08:48;16.60;99.90
15203;DHT22;7702;51.046;5.184;2023-07-31T00:11:14;16.60;99.90
15203;DHT22;7702;51.046;5.184;2023-07-31T00:13:39;16.60;99.90
15203;DHT22;7702;51.046;5.184;2023-07-31T00:16:06;16.50;99.90
15203;DHT22;7702;51.046;5.184;2023-07-31T00:18:31;16.50;99.90
15203;DHT22;7702;51.046;5.184;2023-07-31T00:20:57;16.50;99.90
15203;DHT22;7702;51.046;5.184;2023-07-31T00:23:23;16.50;99.90
15203;DHT22;7702;51.046;5.184;2023-07-31T00:25:48;16.50;99.90
15203;DHT22;7702;51.046;5.184;2023-07-31T00:28:14;16.60;99.90
15203;DHT22;7702;51.046;5.184;2023-07-31T00:30:40;16.60;99.90
15203;DHT22;7702;51.046;5.184;2023-07-31T00:33:05;16.60;99.90
15203;DHT22;7702;51.046;5.184;2023-07-31T00:35:31;16.60;99.90
15203;DHT22;7702;51.046;5.184;2023-07-31T00:37:58;16.70;99.90
15203;DHT22;7702;51.046;5.184;2023-07-31T00:40:24;16.70;99.90
15203;DHT22;7702;51.046;5.184;2023-07-31T00:42:49;16.70;99.90
15203;DHT22;7702;51.046;5.184;2023-07-31T00:45:15;16.70;99.90
15203;DHT22;7702;51.046;5.184;2023-07-31T00:47:41;16.70;99.90
15203;DHT22;7702;51.046;5.184;2023-07-31T00:50:07;16.70;99.90
15203;DHT22;7702;51.046;5.184;2023-07-31T00:52:33;16.70;99.90
15203;DHT22;7702;51.046;5.184;2023-07-31T00:54:59;16.70;99.90
15203;DHT22;7702;51.046;5.184;2023-07-31T00:57:26;16.80;99.90
15203;DHT22;7702;51.046;5.184;2023-07-31T00:59:51;16.70;99.90
15203;DHT22;7702;51.046;5.184;2023-07-31T01:02:17;16.70;99.90
15203;DHT22;7702;51.046;5.184;2023-07-31T01:04:44;16.80;99.90
15203;DHT22;7702;51.046;5.184;2023-07-31T01:09:52;16.70;99.90
15203;DHT22;7702;51.046;5.184;2023-07-31T01:12:24;16.80;99.90
15203;DHT22;7702;51.046;5.184;2023-07-31T01:15:06;16.80;99.90
15203;DHT22;7702;51.046;5.184;2023-07-31T01:17:39;16.80;99.90
15203;DHT22;7702;51.046;5.184;2023-07-31T01:20:26;16.80;99.90
15203;DHT22;7702;51.046;5.184;2023-07-31T01:28:15;16.90;99.90
15203;DHT22;7702;51.046;5.184;2023-07-31T01:30:45;16.90;99.90
15203;DHT22;7702;51.046;5.184;2023-07-31T01:33:14;17.00;99.90
15203;DHT22;7702;51.046;5.184;2023-07-31T01:35:44;16.90;99.90
15203;DHT22;7702;51.046;5.184;2023-07-31T01:38:10;16.90;99.90
15203;DHT22;7702;51.046;5.184;2023-07-31T01:40:36;17.00;99.90
15203;DHT22;7702;51.046;5.184;2023-07-31T01:43:01;17.00;99.90
15203;DHT22;7702;51.046;5.184;2023-07-31T01:45:27;17.00;99.90
15203;DHT22;7702;51.046;5.184;2023-07-31T01:47:53;17.10;99.90
15203;DHT22;7702;51.046;5.184;2023-07-31T01:50:19;17.10;99.90
15203;DHT22;7702;51.046;5.184;2023-07-31T01:52:44;17.10;99.90
15203;DHT22;7702;51.046;5.184;2023-07-31T01:55:10;17.10;99.90
15203;DHT22;7702;51.046;5.184;2023-07-31T01:57:37;17.10;99.90
15203;DHT22;7702;51.046;5.184;2023-07-31T02:00:03;17.10;99.90
15203;DHT22;7702;51.046;5.184;2023-07-31T02:02:29;17.10;99.90
15203;DHT22;7702;51.046;5.184;2023-07-31T02:04:55;17.10;99.90
15203;DHT22;7702;51.046;5.184;2023-07-31T02:07:20;17.10;99.90
15203;DHT22;7702;51.046;5.184;2023-07-31T02:09:46;17.10;99.90
15203;DHT22;7702;51.046;5.184;2023-07-31T02:12:13;17.10;99.90
15203;DHT22;7702;51.046;5.184;2023-07-31T02:14:40;17.10;99.90
15203;DHT22;7702;51.046;5.184;2023-07-31T02:17:06;17.20;99.90
15203;DHT22;7702;51.046;5.184;2023-07-31T02:19:32;17.20;99.90
15203;DHT22;7702;51.046;5.184;2023-07-31T02:21:57;17.20;99.90
15203;DHT22;7702;51.046;5.184;2023-07-31T02:24:24;17.20;99.90
15203;DHT22;7702;51.046;5.184;2023-07-31T02:26:50;17.20;99.90
15203;DHT22;7702;51.046;5.184;2023-07-31T02:29:15;17.20;99.90
15203;DHT22;7702;51.046;5.184;2023-07-31T02:31:41;17.20;99.90
15203;DHT22;7702;51.046;5.184;2023-07-31T02:34:07;17.20;99.90
15203;DHT22;7702;51.046;5.184;2023-07-31T02:36:32;17.20;99.90
15203;DHT22;7702;51.046;5.184;2023-07-31T02:38:58;17.20;99.90
15203;DHT22;7702;51.046;5.184;2023-07-31T02:41:24;17.20;99.90
15203;DHT22;7702;51.046;5.184;2023-07-31T02:43:49;17.30;99.90
15203;DHT22;7702;51.046;5.184;2023-07-31T02:46:15;17.20;99.90
15203;DHT22;7702;51.046;5.184;2023-07-31T02:48:40;17.20;99.90
15203;DHT22;7702;51.046;5.184;2023-07-31T02:51:06;17.20;99.90
15203;DHT22;7702;51.046;5.184;2023-07-31T02:53:32;17.20;99.90
15203;DHT22;7702;51.046;5.184;2023-07-31T02:55:57;17.20;99.90
15203;DHT22;7702;51.046;5.184;2023-07-31T02:58:23;17.20;99.90
15203;DHT22;7702;51.046;5.184;2023-07-31T03:00:49;17.20;99.90
15203;DHT22;7702;51.046;5.184;2023-07-31T03:03:14;17.30;99.90
15203;DHT22;7702;51.046;5.184;2023-07-31T03:05:40;17.30;99.90
15203;DHT22;7702;51.046;5.184;2023-07-31T03:08:06;17.30;99.90
15203;DHT22;7702;51.046;5.184;2023-07-31T03:10:32;17.30;99.90
15203;DHT22;7702;51.046;5.184;2023-07-31T03:12:58;17.30;99.90
15203;DHT22;7702;51.046;5.184;2023-07-31T03:15:23;17.30;99.90
15203;DHT22;7702;51.046;5.184;2023-07-31T03:17:49;17.20;99.90
15203;DHT22;7702;51.046;5.184;2023-07-31T03:20:14;17.30;99.90
15203;DHT22;7702;51.046;5.184;2023-07-31T03:22:40;17.20;99.90
15203;DHT22;7702;51.046;5.184;2023-07-31T03:25:06;17.20;99.90
15203;DHT22;7702;51.046;5.184;2023-07-31T03:27:32;17.20;99.90
15203;DHT22;7702;51.046;5.184;2023-07-31T03:29:59;17.20;99.90
15203;DHT22;7702;51.046;5.184;2023-07-31T03:32:26;17.20;99.90
15203;DHT22;7702;51.046;5.184;2023-07-31T03:34:52;17.30;99.90
15203;DHT22;7702;51.046;5.184;2023-07-31T03:37:18;17.20;99.90
15203;DHT22;7702;51.046;5.184;2023-07-31T03:39:43;17.20;99.90
15203;DHT22;7702;51.046;5.184;2023-07-31T03:42:09;17.20;99.90
15203;DHT22;7702;51.046;5.184;2023-07-31T03:44:35;17.20;99.90
15203;DHT22;7702;51.046;5.184;2023-07-31T03:47:00;17.10;99.90
15203;DHT22;7702;51.046;5.184;2023-07-31T03:49:26;17.10;99.90
15203;DHT22;7702;51.046;5.184;2023-07-31T03:51:52;17.10;99.90
15203;DHT22;7702;51.046;5.184;2023-07-31T03:54:17;17.20;99.90
15203;DHT22;7702;51.046;5.184;2023-07-31T03:56:43;17.20;99.90
15203;DHT22;7702;51.046;5.184;2023-07-31T03:59:09;17.20;99.90
15203;DHT22;7702;51.046;5.184;2023-07-31T04:01:34;17.20;99.90
15203;DHT22;7702;51.046;5.184;2023-07-31T04:04:00;17.20;99.90
15203;DHT22;7702;51.046;5.184;2023-07-31T04:06:26;17.20;99.90
15203;DHT22;7702;51.046;5.184;2023-07-31T04:08:51;17.30;99.90
15203;DHT22;7702;51.046;5.184;2023-07-31T04:11:17;17.30;99.90
15203;DHT22;7702;51.046;5.184;2023-07-31T04:13:42;17.20;99.90
15203;DHT22;7702;51.046;5.184;2023-07-31T04:16:09;17.20;99.90
15203;DHT22;7702;51.046;5.184;2023-07-31T04:18:34;17.20;99.90
15203;DHT22;7702;51.046;5.184;2023-07-31T04:21:00;17.30;99.90
15203;DHT22;7702;51.046;5.184;2023-07-31T04:23:27;17.30;99.90
15203;DHT22;7702;51.046;5.184;2023-07-31T04:25:53;17.20;99.90
15203;DHT22;7702;51.046;5.184;2023-07-31T04:28:19;17.30;99.90
15203;DHT22;7702;51.046;5.184;2023-07-31T04:30:44;17.30;99.90
15203;DHT22;7702;51.046;5.184;2023-07-31T04:33:10;17.30;99.90
15203;DHT22;7702;51.046;5.184;2023-07-31T04:35:36;17.20;99.90
15203;DHT22;7702;51.046;5.184;2023-07-31T04:38:02;17.20;99.90
15203;DHT22;7702;51.046;5.184;2023-07-31T04:40:27;17.10;99.90
15203;DHT22;7702;51.046;5.184;2023-07-31T04:42:53;17.10;99.90
15203;DHT22;7702;51.046;5.184;2023-07-31T04:45:18;17.10;99.90
15203;DHT22;7702;51.046;5.184;2023-07-31T04:47:44;17.10;99.90
15203;DHT22;7702;51.046;5.184;2023-07-31T04:50:10;17.10;99.90
15203;DHT22;7702;51.046;5.184;2023-07-31T04:52:36;17.10;99.90
15203;DHT22;7702;51.046;5.184;2023-07-31T04:55:01;17.00;99.90
15203;DHT22;7702;51.046;5.184;2023-07-31T04:57:27;16.90;99.90
15203;DHT22;7702;51.046;5.184;2023-07-31T04:59:53;17.00;99.90
15203;DHT22;7702;51.046;5.184;2023-07-31T05:02:18;16.90;99.90
15203;DHT22;7702;51.046;5.184;2023-07-31T05:04:44;16.90;99.90
15203;DHT22;7702;51.046;5.184;2023-07-31T05:07:10;16.90;99.90
15203;DHT22;7702;51.046;5.184;2023-07-31T05:09:36;16.80;99.90
15203;DHT22;7702;51.046;5.184;2023-07-31T05:12:01;16.80;99.90
15203;DHT22;7702;51.046;5.184;2023-07-31T05:14:27;16.80;99.90
15203;DHT22;7702;51.046;5.184;2023-07-31T05:16:53;16.80;99.90
15203;DHT22;7702;51.046;5.184;2023-07-31T05:19:18;16.80;99.90
15203;DHT22;7702;51.046;5.184;2023-07-31T05:21:44;16.90;99.90
15203;DHT22;7702;51.046;5.184;2023-07-31T05:24:10;16.90;99.90
15203;DHT22;7702;51.046;5.184;2023-07-31T05:26:36;16.90;99.90
15203;DHT22;7702;51.046;5.184;2023-07-31T05:29:03;16.90;99.90
15203;DHT22;7702;51.046;5.184;2023-07-31T05:31:29;16.90;99.90
15203;DHT22;7702;51.046;5.184;2023-07-31T05:33:54;16.90;99.90
15203;DHT22;7702;51.046;5.184;2023-07-31T05:36:21;16.90;99.90
15203;DHT22;7702;51.046;5.184;2023-07-31T05:38:46;16.90;99.90
15203;DHT22;7702;51.046;5.184;2023-07-31T05:41:12;16.90;99.90
15203;DHT22;7702;51.046;5.184;2023-07-31T05:43:38;16.90;99.90
15203;DHT22;7702;51.046;5.184;2023-07-31T05:46:04;17.00;99.90
15203;DHT22;7702;51.046;5.184;2023-07-31T05:48:30;17.00;99.90
15203;DHT22;7702;51.046;5.184;2023-07-31T05:50:55;17.00;99.90
15203;DHT22;7702;51.046;5.184;2023-07-31T05:53:21;16.90;99.90
15203;DHT22;7702;51.046;5.184;2023-07-31T05:55:47;17.00;99.90
15203;DHT22;7702;51.046;5.184;2023-07-31T05:58:12;16.90;99.90
15203;DHT22;7702;51.046;5.184;2023-07-31T06:00:39;16.90;99.90
15203;DHT22;7702;51.046;5.184;2023-07-31T06:03:06;16.90;99.90
15203;DHT22;7702;51.046;5.184;2023-07-31T06:05:32;16.90;99.90
15203;DHT22;7702;51.046;5.184;2023-07-31T06:07:57;16.90;99.90
15203;DHT22;7702;51.046;5.184;2023-07-31T06:10:23;16.90;99.90
15203;DHT22;7702;51.046;5.184;2023-07-31T06:12:49;16.90;99.90
15203;DHT22;7702;51.046;5.184;2023-07-31T06:15:14;16.80;99.90
15203;DHT22;7702;51.046;5.184;2023-07-31T06:17:40;16.80;99.90
15203;DHT22;7702;51.046;5.184;2023-07-31T06:20:06;16.70;99.90
15203;DHT22;7702;51.046;5.184;2023-07-31T06:22:32;16.70;99.90
15203;DHT22;7702;51.046;5.184;2023-07-31T06:24:58;16.60;99.90
15203;DHT22;7702;51.046;5.184;2023-07-31T06:27:24;16.60;99.90
15203;DHT22;7702;51.046;5.184;2023-07-31T06:29:49;16.60;99.90
15203;DHT22;7702;51.046;5.184;2023-07-31T06:32:15;16.60;99.90
15203;DHT22;7702;51.046;5.184;2023-07-31T06:34:41;16.50;99.90
15203;DHT22;7702;51.046;5.184;2023-07-31T06:37:06;16.50;99.90
15203;DHT22;7702;51.046;5.184;2023-07-31T06:39:32;16.40;99.90
15203;DHT22;7702;51.046;5.184;2023-07-31T06:41:58;16.50;99.90
15203;DHT22;7702;51.046;5.184;2023-07-31T06:44:23;16.40;99.90
15203;DHT22;7702;51.046;5.184;2023-07-31T06:46:49;16.40;99.90
15203;DHT22;7702;51.046;5.184;2023-07-31T06:49:15;16.40;99.90
15203;DHT22;7702;51.046;5.184;2023-07-31T06:51:41;16.40;99.90
15203;DHT22;7702;51.046;5.184;2023-07-31T06:54:08;16.40;99.90
15203;DHT22;7702;51.046;5.184;2023-07-31T06:56:34;16.40;99.90
15203;DHT22;7702;51.046;5.184;2023-07-31T06:59:00;16.40;99.90
15203;DHT22;7702;51.046;5.184;2023-07-31T07:01:26;16.50;99.90
15203;DHT22;7702;51.046;5.184;2023-07-31T07:03:54;16.50;99.90
15203;DHT22;7702;51.046;5.184;2023-07-31T07:06:19;16.50;99.90
15203;DHT22;7702;51.046;5.184;2023-07-31T07:08:45;16.50;99.90
15203;DHT22;7702;51.046;5.184;2023-07-31T07:11:11;16.60;99.90
15203;DHT22;7702;51.046;5.184;2023-07-31T07:13:36;16.60;99.90
15203;DHT22;7702;51.046;5.184;2023-07-31T07:16:02;16.70;99.90
15203;DHT22;7702;51.046;5.184;2023-07-31T07:18:28;16.70;99.90
15203;DHT22;7702;51.046;5.184;2023-07-31T07:20:54;16.70;99.90
15203;DHT22;7702;51.046;5.184;2023-07-31T07:23:20;16.80;99.90
15203;DHT22;7702;51.046;5.184;2023-07-31T07:25:47;16.70;99.90
15203;DHT22;7702;51.046;5.184;2023-07-31T07:28:13;16.80;99.90
15203;DHT22;7702;51.046;5.184;2023-07-31T07:30:39;16.80;99.90
15203;DHT22;7702;51.046;5.184;2023-07-31T07:33:05;16.80;99.90
15203;DHT22;7702;51.046;5.184;2023-07-31T07:35:35;16.80;99.90
15203;DHT22;7702;51.046;5.184;2023-07-31T07:38:04;16.90;99.90
15203;DHT22;7702;51.046;5.184;2023-07-31T07:40:30;16.90;99.90
15203;DHT22;7702;51.046;5.184;2023-07-31T07:42:55;16.90;99.90
15203;DHT22;7702;51.046;5.184;2023-07-31T07:45:21;16.90;99.90
15203;DHT22;7702;51.046;5.184;2023-07-31T07:47:47;16.90;99.90
15203;DHT22;7702;51.046;5.184;2023-07-31T07:50:12;17.00;99.90
15203;DHT22;7702;51.046;5.184;2023-07-31T07:52:38;17.00;99.90
15203;DHT22;7702;51.046;5.184;2023-07-31T07:55:04;17.00;99.90
15203;DHT22;7702;51.046;5.184;2023-07-31T07:57:30;17.10;99.90
15203;DHT22;7702;51.046;5.184;2023-07-31T07:59:56;17.20;99.90
15203;DHT22;7702;51.046;5.184;2023-07-31T08:02:22;17.20;99.90
15203;DHT22;7702;51.046;5.184;2023-07-31T08:04:48;17.30;99.90
15203;DHT22;7702;51.046;5.184;2023-07-31T08:07:14;17.40;99.90
15203;DHT22;7702;51.046;5.184;2023-07-31T08:09:40;17.30;99.90
15203;DHT22;7702;51.046;5.184;2023-07-31T08:12:06;17.40;99.90
15203;DHT22;7702;51.046;5.184;2023-07-31T08:14:32;17.40;99.90
15203;DHT22;7702;51.046;5.184;2023-07-31T08:16:58;17.30;99.90
15203;DHT22;7702;51.046;5.184;2023-07-31T08:19:24;17.40;99.90
15203;DHT22;7702;51.046;5.184;2023-07-31T08:21:49;17.50;99.90
15203;DHT22;7702;51.046;5.184;2023-07-31T08:24:15;17.50;99.90
15203;DHT22;7702;51.046;5.184;2023-07-31T08:26:41;17.60;99.90
15203;DHT22;7702;51.046;5.184;2023-07-31T08:29:06;17.50;99.90
15203;DHT22;7702;51.046;5.184;2023-07-31T08:31:32;17.50;99.90
15203;DHT22;7702;51.046;5.184;2023-07-31T08:33:58;17.50;99.90
15203;DHT22;7702;51.046;5.184;2023-07-31T08:36:23;17.50;99.90
15203;DHT22;7702;51.046;5.184;2023-07-31T08:38:49;17.40;99.90
15203;DHT22;7702;51.046;5.184;2023-07-31T08:41:15;17.40;99.90
15203;DHT22;7702;51.046;5.184;2023-07-31T08:43:44;17.50;99.90
15203;DHT22;7702;51.046;5.184;2023-07-31T08:46:10;17.40;99.90
15203;DHT22;7702;51.046;5.184;2023-07-31T08:48:37;17.50;99.90
15203;DHT22;7702;51.046;5.184;2023-07-31T08:51:06;17.60;99.90
15203;DHT22;7702;51.046;5.184;2023-07-31T08:53:32;17.80;99.90
15203;DHT22;7702;51.046;5.184;2023-07-31T08:55:59;17.80;99.90
15203;DHT22;7702;51.046;5.184;2023-07-31T08:58:27;17.90;99.90
15203;DHT22;7702;51.046;5.184;2023-07-31T09:00:56;18.00;99.90
15203;DHT22;7702;51.046;5.184;2023-07-31T09:03:23;18.00;99.90
15203;DHT22;7702;51.046;5.184;2023-07-31T09:05:50;18.10;99.90
15203;DHT22;7702;51.046;5.184;2023-07-31T09:08:19;18.10;99.90
15203;DHT22;7702;51.046;5.184;2023-07-31T09:10:46;18.10;99.90
15203;DHT22;7702;51.046;5.184;2023-07-31T09:13:13;18.10;99.90
15203;DHT22;7702;51.046;5.184;2023-07-31T09:15:40;18.10;99.90
15203;DHT22;7702;51.046;5.184;2023-07-31T09:18:07;18.00;99.90
15203;DHT22;7702;51.046;5.184;2023-07-31T09:20:33;17.80;99.90
15203;DHT22;7702;51.046;5.184;2023-07-31T09:23:11;17.90;99.90
15203;DHT22;7702;51.046;5.184;2023-07-31T09:25:38;17.90;99.90
15203;DHT22;7702;51.046;5.184;2023-07-31T09:28:08;17.90;99.90
15203;DHT22;7702;51.046;5.184;2023-07-31T09:30:46;17.90;99.90
15203;DHT22;7702;51.046;5.184;2023-07-31T09:33:12;17.80;99.90
15203;DHT22;7702;51.046;5.184;2023-07-31T09:35:39;17.80;99.90
15203;DHT22;7702;51.046;5.184;2023-07-31T09:38:10;17.80;99.90
15203;DHT22;7702;51.046;5.184;2023-07-31T09:40:38;17.80;99.90
15203;DHT22;7702;51.046;5.184;2023-07-31T09:43:06;17.80;99.90
15203;DHT22;7702;51.046;5.184;2023-07-31T09:45:36;17.90;99.90
15203;DHT22;7702;51.046;5.184;2023-07-31T09:48:03;18.00;99.90
15203;DHT22;7702;51.046;5.184;2023-07-31T09:50:29;18.00;99.90
15203;DHT22;7702;51.046;5.184;2023-07-31T09:52:55;18.10;99.90
15203;DHT22;7702;51.046;5.184;2023-07-31T09:55:21;18.10;99.90
15203;DHT22;7702;51.046;5.184;2023-07-31T09:57:49;18.20;99.90
15203;DHT22;7702;51.046;5.184;2023-07-31T10:00:17;18.20;99.90
15203;DHT22;7702;51.046;5.184;2023-07-31T10:02:45;18.40;99.90
15203;DHT22;7702;51.046;5.184;2023-07-31T10:05:13;18.50;99.90
15203;DHT22;7702;51.046;5.184;2023-07-31T10:07:52;18.80;99.90
15203;DHT22;7702;51.046;5.184;2023-07-31T10:10:20;18.80;99.90
15203;DHT22;7702;51.046;5.184;2023-07-31T10:12:48;18.80;99.90
15203;DHT22;7702;51.046;5.184;2023-07-31T10:15:14;18.80;99.90
15203;DHT22;7702;51.046;5.184;2023-07-31T10:17:41;18.80;99.90
15203;DHT22;7702;51.046;5.184;2023-07-31T10:20:07;18.80;99.90
15203;DHT22;7702;51.046;5.184;2023-07-31T10:22:34;19.00;99.90
15203;DHT22;7702;51.046;5.184;2023-07-31T10:25:00;19.30;99.90
15203;DHT22;7702;51.046;5.184;2023-07-31T10:27:26;19.50;99.90
15203;DHT22;7702;51.046;5.184;2023-07-31T10:29:57;19.90;99.90
15203;DHT22;7702;51.046;5.184;2023-07-31T10:32:23;19.90;99.90
15203;DHT22;7702;51.046;5.184;2023-07-31T10:34:51;20.10;99.90
15203;DHT22;7702;51.046;5.184;2023-07-31T10:37:25;20.20;99.90
15203;DHT22;7702;51.046;5.184;2023-07-31T10:40:11;20.60;99.90
15203;DHT22;7702;51.046;5.184;2023-07-31T10:42:45;20.30;99.90
15203;DHT22;7702;51.046;5.184;2023-07-31T10:45:13;19.90;99.90
15203;DHT22;7702;51.046;5.184;2023-07-31T10:47:45;19.70;99.90
15203;DHT22;7702;51.046;5.184;2023-07-31T10:50:22;19.60;99.90
15203;DHT22;7702;51.046;5.184;2023-07-31T10:52:50;19.50;99.90
15203;DHT22;7702;51.046;5.184;2023-07-31T10:57:51;19.30;99.90
15203;DHT22;7702;51.046;5.184;2023-07-31T11:00:27;19.30;99.90
15203;DHT22;7702;51.046;5.184;2023-07-31T11:08:22;19.20;99.90
15203;DHT22;7702;51.046;5.184;2023-07-31T11:16:10;19.10;99.90
15203;DHT22;7702;51.046;5.184;2023-07-31T11:18:39;19.20;99.90
15203;DHT22;7702;51.046;5.184;2023-07-31T11:21:06;19.20;99.90
15203;DHT22;7702;51.046;5.184;2023-07-31T11:23:31;19.20;99.90
15203;DHT22;7702;51.046;5.184;2023-07-31T11:26:00;19.30;99.90
15203;DHT22;7702;51.046;5.184;2023-07-31T11:28:34;19.30;99.90
15203;DHT22;7702;51.046;5.184;2023-07-31T11:31:01;19.50;99.90
15203;DHT22;7702;51.046;5.184;2023-07-31T11:33:27;19.60;99.90
15203;DHT22;7702;51.046;5.184;2023-07-31T11:35:53;19.80;99.90
15203;DHT22;7702;51.046;5.184;2023-07-31T11:38:23;20.00;99.90
15203;DHT22;7702;51.046;5.184;2023-07-31T11:40:50;20.20;99.90
15203;DHT22;7702;51.046;5.184;2023-07-31T11:43:15;20.30;99.90
15203;DHT22;7702;51.046;5.184;2023-07-31T11:45:55;20.20;99.90
15203;DHT22;7702;51.046;5.184;2023-07-31T11:48:30;20.30;99.90
15203;DHT22;7702;51.046;5.184;2023-07-31T11:51:00;20.20;99.90
15203;DHT22;7702;51.046;5.184;2023-07-31T11:56:04;20.40;99.90
15203;DHT22;7702;51.046;5.184;2023-07-31T11:58:31;20.30;99.90
15203;DHT22;7702;51.046;5.184;2023-07-31T12:00:59;20.30;99.90
15203;DHT22;7702;51.046;5.184;2023-07-31T12:03:26;20.20;99.90
15203;DHT22;7702;51.046;5.184;2023-07-31T12:05:55;20.00;99.90
15203;DHT22;7702;51.046;5.184;2023-07-31T12:08:22;20.00;99.90
15203;DHT22;7702;51.046;5.184;2023-07-31T12:10:50;20.10;99.90
15203;DHT22;7702;51.046;5.184;2023-07-31T12:13:22;20.20;99.90
15203;DHT22;7702;51.046;5.184;2023-07-31T12:15:49;20.30;99.90
15203;DHT22;7702;51.046;5.184;2023-07-31T12:18:17;20.30;99.90
15203;DHT22;7702;51.046;5.184;2023-07-31T12:20:54;20.30;99.90
15203;DHT22;7702;51.046;5.184;2023-07-31T12:23:25;20.40;99.90
15203;DHT22;7702;51.046;5.184;2023-07-31T12:26:05;20.30;99.90
15203;DHT22;7702;51.046;5.184;2023-07-31T12:28:36;20.20;99.90
15203;DHT22;7702;51.046;5.184;2023-07-31T12:31:04;20.20;99.90
15203;DHT22;7702;51.046;5.184;2023-07-31T12:33:37;20.20;99.90
15203;DHT22;7702;51.046;5.184;2023-07-31T12:36:07;20.40;99.90
15203;DHT22;7702;51.046;5.184;2023-07-31T12:38:33;20.70;99.90
15203;DHT22;7702;51.046;5.184;2023-07-31T12:40:59;20.90;99.90
15203;DHT22;7702;51.046;5.184;2023-07-31T12:43:25;21.20;99.90
15203;DHT22;7702;51.046;5.184;2023-07-31T12:45:50;21.30;99.90
15203;DHT22;7702;51.046;5.184;2023-07-31T12:48:16;21.40;99.90
15203;DHT22;7702;51.046;5.184;2023-07-31T12:50:42;21.30;99.90
15203;DHT22;7702;51.046;5.184;2023-07-31T12:53:07;21.20;99.90
15203;DHT22;7702;51.046;5.184;2023-07-31T12:55:34;21.10;99.90
15203;DHT22;7702;51.046;5.184;2023-07-31T12:58:00;21.00;99.90
15203;DHT22;7702;51.046;5.184;2023-07-31T13:00:26;21.00;99.90
15203;DHT22;7702;51.046;5.184;2023-07-31T13:02:52;20.80;99.90
15203;DHT22;7702;51.046;5.184;2023-07-31T13:05:18;20.60;99.90
15203;DHT22;7702;51.046;5.184;2023-07-31T13:07:45;20.50;99.90
15203;DHT22;7702;51.046;5.184;2023-07-31T13:10:11;20.40;99.90
15203;DHT22;7702;51.046;5.184;2023-07-31T13:12:36;20.50;99.90
15203;DHT22;7702;51.046;5.184;2023-07-31T13:15:03;20.50;99.90
15203;DHT22;7702;51.046;5.184;2023-07-31T13:17:29;20.50;99.90
15203;DHT22;7702;51.046;5.184;2023-07-31T13:19:54;20.60;99.90
15203;DHT22;7702;51.046;5.184;2023-07-31T13:22:20;20.50;99.90
15203;DHT22;7702;51.046;5.184;2023-07-31T13:24:46;20.50;99.90
15203;DHT22;7702;51.046;5.184;2023-07-31T13:27:11;20.40;99.90
15203;DHT22;7702;51.046;5.184;2023-07-31T13:29:37;20.30;99.90
15203;DHT22;7702;51.046;5.184;2023-07-31T13:32:03;20.30;99.90
15203;DHT22;7702;51.046;5.184;2023-07-31T13:34:29;20.40;99.90
15203;DHT22;7702;51.046;5.184;2023-07-31T13:36:55;20.40;99.90
15203;DHT22;7702;51.046;5.184;2023-07-31T13:39:21;20.50;99.90
15203;DHT22;7702;51.046;5.184;2023-07-31T13:41:47;20.40;99.90
15203;DHT22;7702;51.046;5.184;2023-07-31T13:44:13;20.30;99.90
15203;DHT22;7702;51.046;5.184;2023-07-31T13:46:39;20.30;99.90
15203;DHT22;7702;51.046;5.184;2023-07-31T13:49:05;20.10;99.90
15203;DHT22;7702;51.046;5.184;2023-07-31T13:51:30;20.10;99.90
15203;DHT22;7702;51.046;5.184;2023-07-31T13:53:56;20.00;99.90
15203;DHT22;7702;51.046;5.184;2023-07-31T13:56:22;20.00;99.90
15203;DHT22;7702;51.046;5.184;2023-07-31T13:58:48;20.00;99.90
15203;DHT22;7702;51.046;5.184;2023-07-31T14:01:13;20.00;99.90
15203;DHT22;7702;51.046;5.184;2023-07-31T14:03:39;20.00;99.90
15203;DHT22;7702;51.046;5.184;2023-07-31T14:06:05;20.00;99.90
15203;DHT22;7702;51.046;5.184;2023-07-31T14:08:31;19.90;99.90
15203;DHT22;7702;51.046;5.184;2023-07-31T14:10:56;19.70;99.90
15203;DHT22;7702;51.046;5.184;2023-07-31T14:13:22;19.70;99.90
15203;DHT22;7702;51.046;5.184;2023-07-31T14:15:48;19.60;99.90
15203;DHT22;7702;51.046;5.184;2023-07-31T14:18:14;19.60;99.90
15203;DHT22;7702;51.046;5.184;2023-07-31T14:20:40;19.50;99.90
15203;DHT22;7702;51.046;5.184;2023-07-31T14:23:06;19.40;99.90
15203;DHT22;7702;51.046;5.184;2023-07-31T14:25:31;19.20;99.90
15203;DHT22;7702;51.046;5.184;2023-07-31T14:27:57;19.10;99.90
15203;DHT22;7702;51.046;5.184;2023-07-31T14:30:23;18.90;99.90
15203;DHT22;7702;51.046;5.184;2023-07-31T14:32:48;18.70;99.90
15203;DHT22;7702;51.046;5.184;2023-07-31T14:35:14;18.60;99.90
15203;DHT22;7702;51.046;5.184;2023-07-31T14:37:42;18.60;99.90
15203;DHT22;7702;51.046;5.184;2023-07-31T14:40:10;18.60;99.90
15203;DHT22;7702;51.046;5.184;2023-07-31T14:42:36;18.60;99.90
15203;DHT22;7702;51.046;5.184;2023-07-31T14:45:04;18.50;99.90
15203;DHT22;7702;51.046;5.184;2023-07-31T14:47:29;18.60;99.90
15203;DHT22;7702;51.046;5.184;2023-07-31T14:49:57;18.50;99.90
15203;DHT22;7702;51.046;5.184;2023-07-31T14:52:23;18.50;99.90
15203;DHT22;7702;51.046;5.184;2023-07-31T14:54:49;18.50;99.90
15203;DHT22;7702;51.046;5.184;2023-07-31T14:57:15;18.50;99.90
15203;DHT22;7702;51.046;5.184;2023-07-31T14:59:40;18.50;99.90
15203;DHT22;7702;51.046;5.184;2023-07-31T15:02:07;18.40;99.90
15203;DHT22;7702;51.046;5.184;2023-07-31T15:04:33;18.40;99.90
15203;DHT22;7702;51.046;5.184;2023-07-31T15:06:59;18.40;99.90
15203;DHT22;7702;51.046;5.184;2023-07-31T15:09:25;18.30;99.90
15203;DHT22;7702;51.046;5.184;2023-07-31T15:11:50;18.30;99.90
15203;DHT22;7702;51.046;5.184;2023-07-31T15:14:16;18.30;99.90
15203;DHT22;7702;51.046;5.184;2023-07-31T15:16:42;18.20;99.90
15203;DHT22;7702;51.046;5.184;2023-07-31T15:19:07;18.20;99.90
15203;DHT22;7702;51.046;5.184;2023-07-31T15:21:33;18.20;99.90
15203;DHT22;7702;51.046;5.184;2023-07-31T15:23:59;18.30;99.90
15203;DHT22;7702;51.046;5.184;2023-07-31T15:26:24;18.20;99.90
15203;DHT22;7702;51.046;5.184;2023-07-31T15:29:02;18.30;99.90
15203;DHT22;7702;51.046;5.184;2023-07-31T15:31:31;18.30;99.90
15203;DHT22;7702;51.046;5.184;2023-07-31T15:33:56;18.30;99.90
15203;DHT22;7702;51.046;5.184;2023-07-31T15:36:23;18.30;99.90
15203;DHT22;7702;51.046;5.184;2023-07-31T15:38:48;18.20;99.90
15203;DHT22;7702;51.046;5.184;2023-07-31T15:41:17;18.10;99.90
15203;DHT22;7702;51.046;5.184;2023-07-31T15:43:42;18.00;99.90
15203;DHT22;7702;51.046;5.184;2023-07-31T15:46:08;18.00;99.90
15203;DHT22;7702;51.046;5.184;2023-07-31T15:48:34;18.00;99.90
15203;DHT22;7702;51.046;5.184;2023-07-31T15:50:59;18.00;99.90
15203;DHT22;7702;51.046;5.184;2023-07-31T15:53:26;18.00;99.90
15203;DHT22;7702;51.046;5.184;2023-07-31T15:55:52;18.00;99.90
15203;DHT22;7702;51.046;5.184;2023-07-31T15:58:18;17.90;99.90
15203;DHT22;7702;51.046;5.184;2023-07-31T16:00:43;17.80;99.90
15203;DHT22;7702;51.046;5.184;2023-07-31T16:03:09;17.90;99.90
15203;DHT22;7702;51.046;5.184;2023-07-31T16:05:35;17.80;99.90